LIPE/BLQ METAR and TAF weather

Enter ICAO airport designator
Station Type Date Time Source
LIPE METAR 2018/12/13 08:20 UTC NOAA

LIPE 130820Z 31004KT 8000 SCT020 BKN050 02/M02 Q1016


Station Type Date Time Source
LIPE Decoded METAR 2018/12/13 08:20 UTC NOAA

Bologna / Borgo Panigale, Italy (LIPE) 44-32N 011-18E 49M
Dec 13, 2018 - 03:20 AM EST / 2018.12.13 0820 UTC
Wind: from the NW (310 degrees) at 5 MPH (4 KT):0
Visibility: 4 mile(s):0
Sky conditions: mostly cloudy
Temperature: 35 F (2 C)
Windchill: 30 F (-1 C):1
Dew Point: 28 F (-2 C)
Relative Humidity: 74%
Pressure (altimeter): 30.00 in. Hg (1016 hPa)
ob: LIPE 130820Z 31004KT 8000 SCT020 BKN050 02/M02 Q1016
cycle: 8

Station Type Date Time Source
LIPE TAF 2018/12/13 06:25 UTC NOAA

TAF LIPE 130500Z 1306/1406 VRB05KT 9999 SCT030
TEMPO 1315/1321 RASN
TEMPO 1321/1406 4000 SN


Example: see airport list